Time;durP1;ratioP1;P1;durP2;ratioP2;P2;SDS_P1;SDS_P2;PMS_P1;PMS_P2;Temp;Humidity;BMP_temperature;BMP_pressure;BME280_temperature;BME280_humidity;BME280_pressure;Samples;Min_cycle;Max_cycle;Signal;HPM_P1;HPM_P2
2023/05/14 00:00:50;;;;;;;16.55;10.10;;;;;;;13.98;93.77;98588.25;5094044;28;20073;-49
2023/05/14 00:03:16;;;;;;;10.63;4.43;;;;;;;14.08;93.66;98589.53;5092906;28;20111;-48
2023/05/14 00:05:41;;;;;;;7.22;4.90;;;;;;;14.03;92.80;98590.22;5092862;28;20059;-49
2023/05/14 00:08:07;;;;;;;9.80;4.88;;;;;;;13.93;92.09;98590.75;5094196;28;20058;-49
2023/05/14 00:10:33;;;;;;;4.88;4.10;;;;;;;13.92;92.65;98593.59;5092727;28;20035;-49
2023/05/14 00:12:58;;;;;;;10.35;4.45;;;;;;;13.98;92.93;98584.78;5092784;28;20493;-49
2023/05/14 00:15:24;;;;;;;7.05;4.32;;;;;;;14.04;92.33;98581.25;5094053;28;20028;-49
2023/05/14 00:17:49;;;;;;;10.52;4.55;;;;;;;14.19;93.19;98580.84;5093962;28;20028;-50
2023/05/14 00:20:15;;;;;;;9.23;4.07;;;;;;;14.17;91.77;98581.06;5092544;28;20027;-50
2023/05/14 00:22:41;;;;;;;10.88;4.38;;;;;;;14.17;91.35;98582.91;5094039;28;20050;-49
2023/05/14 00:25:07;;;;;;;16.02;5.05;;;;;;;14.10;89.30;98577.69;5092530;28;20024;-49
2023/05/14 00:27:33;;;;;;;7.45;4.25;;;;;;;13.94;88.38;98579.19;5092413;28;20035;-49
2023/05/14 00:29:59;;;;;;;10.38;4.65;;;;;;;13.81;88.14;98574.06;5093635;28;20032;-49
2023/05/14 00:32:25;;;;;;;9.20;5.07;;;;;;;13.64;87.14;98581.78;5093678;28;20140;-49
2023/05/14 00:34:50;;;;;;;11.93;4.97;;;;;;;13.48;87.16;98583.22;5092271;28;20520;-49
2023/05/14 00:37:16;;;;;;;11.35;5.53;;;;;;;13.33;87.96;98573.03;5092187;28;20032;-49
2023/05/14 00:39:45;;;;;;;7.55;5.93;;;;;;;13.21;88.74;98580.03;5093373;28;20028;-50
2023/05/14 00:42:10;;;;;;;15.70;5.63;;;;;;;13.21;90.39;98577.41;5093715;28;20056;-49
2023/05/14 00:44:36;;;;;;;10.95;5.93;;;;;;;13.35;90.78;98573.63;5093336;28;20051;-49
2023/05/14 00:47:02;;;;;;;18.25;6.57;;;;;;;13.52;90.33;98571.19;5093438;28;20111;-49
2023/05/14 00:49:28;;;;;;;10.07;5.65;;;;;;;13.73;90.87;98563.84;5093377;28;20028;-49
2023/05/14 00:51:54;;;;;;;8.82;4.65;;;;;;;14.04;91.13;98561.97;5091972;28;20054;-49
2023/05/14 00:54:20;;;;;;;8.07;5.70;;;;;;;14.04;87.21;98567.25;5092389;28;20028;-49
2023/05/14 00:56:46;;;;;;;13.98;6.15;;;;;;;14.00;88.38;98561.63;5093225;28;20020;-49
2023/05/14 00:59:13;;;;;;;16.85;5.25;;;;;;;14.10;88.96;98558.44;5093209;28;20020;-49
2023/05/14 01:01:38;;;;;;;9.52;4.47;;;;;;;14.28;89.55;98552.28;5092942;28;20048;-49
2023/05/14 01:04:06;;;;;;;10.90;5.38;;;;;;;14.47;89.43;98548.50;5093055;28;20567;-49
2023/05/14 01:07:13;;;;;;;7.50;4.28;;;;;;;14.63;87.71;98548.88;5092933;28;20103;-49
2023/05/14 01:09:43;;;;;;;11.23;4.63;;;;;;;14.75;88.07;98550.50;5091226;28;20165;-49
2023/05/14 01:12:34;;;;;;;10.38;4.68;;;;;;;14.78;86.52;98546.59;5091107;28;20046;-49
2023/05/14 01:15:11;;;;;;;11.32;4.50;;;;;;;14.70;86.55;98544.28;5092901;28;20524;-50
2023/05/14 01:17:45;;;;;;;26.63;6.45;;;;;;;14.66;86.45;98545.78;5091472;28;20032;-50
2023/05/14 01:20:11;;;;;;;12.68;4.70;;;;;;;14.54;86.08;98533.34;5092797;28;20036;-49
2023/05/14 01:22:37;;;;;;;7.03;4.88;;;;;;;14.35;85.49;98531.88;5074457;28;20066;-49
2023/05/14 01:25:03;;;;;;;11.50;4.55;;;;;;;14.26;85.73;98531.38;5092679;28;20113;-49
2023/05/14 01:28:02;;;;;;;8.50;4.68;;;;;;;14.25;85.82;98535.06;5092605;28;20044;-49
2023/05/14 01:30:33;;;;;;;5.80;4.60;;;;;;;14.10;84.71;98535.47;5083308;28;20118;-49
2023/05/14 01:33:02;;;;;;;10.30;4.88;;;;;;;13.81;83.65;98536.34;5092585;28;20020;-49
2023/05/14 01:35:29;;;;;;;7.82;4.25;;;;;;;13.71;84.06;98532.41;5091179;28;20520;-49
2023/05/14 01:38:05;;;;;;;6.97;4.30;;;;;;;13.49;84.16;98533.94;5091244;28;20054;-50
2023/05/14 01:40:32;;;;;;;11.93;4.85;;;;;;;13.47;85.49;98530.72;5092302;28;20108;-49
2023/05/14 01:42:59;;;;;;;7.18;4.22;;;;;;;13.57;85.35;98541.53;5092325;28;20024;-49
2023/05/14 01:45:25;;;;;;;7.45;4.35;;;;;;;13.64;84.98;98531.69;5091071;28;20020;-49
2023/05/14 01:47:51;;;;;;;5.88;4.47;;;;;;;13.59;84.54;98539.47;5092571;28;20512;-49
2023/05/14 01:50:17;;;;;;;20.13;17.63;;;;;;;13.55;84.84;98531.19;5090998;28;20028;-49
2023/05/14 01:52:43;;;;;;;15.82;9.20;;;;;;;13.70;85.02;98541.34;5090906;28;20047;-49
2023/05/14 01:55:10;;;;;;;21.63;19.23;;;;;;;13.82;83.90;98544.00;5092186;28;20117;-50
2023/05/14 01:57:36;;;;;;;19.45;12.80;;;;;;;13.92;84.18;98541.66;5092264;28;20400;-49
2023/05/14 02:00:03;;;;;;;13.52;6.68;;;;;;;14.03;83.82;98540.06;5092187;28;20024;-49
2023/05/14 02:02:28;;;;;;;9.93;4.32;;;;;;;14.15;83.62;98543.53;5091052;28;20409;-49
2023/05/14 02:04:54;;;;;;;8.45;6.28;;;;;;;14.10;82.22;98546.03;5074040;28;20028;-49
2023/05/14 02:07:20;;;;;;;25.83;19.30;;;;;;;13.98;83.13;98538.13;5090714;28;20036;-50
2023/05/14 02:09:45;;;;;;;25.05;16.88;;;;;;;14.01;83.80;98539.50;5090722;28;20028;-49
2023/05/14 02:12:11;;;;;;;11.32;7.03;;;;;;;14.12;84.56;98541.34;5090633;28;20027;-49
2023/05/14 02:14:37;;;;;;;9.00;4.45;;;;;;;14.28;84.74;98539.88;5091982;28;20035;-49
2023/05/14 02:17:05;;;;;;;7.10;3.55;;;;;;;14.34;82.84;98533.69;5091977;28;20028;-49
2023/05/14 02:19:31;;;;;;;7.80;3.90;;;;;;;14.31;82.09;98544.72;5091982;28;20043;-49
2023/05/14 02:21:58;;;;;;;7.70;4.25;;;;;;;14.24;81.30;98540.56;5091850;28;20058;-49
2023/05/14 02:24:24;;;;;;;14.02;3.42;;;;;;;14.14;81.06;98541.91;5090862;28;20024;-50
2023/05/14 02:26:49;;;;;;;4.15;3.45;;;;;;;14.07;81.19;98543.06;5096183;28;20047;-50
2023/05/14 02:29:15;;;;;;;9.30;4.10;;;;;;;14.00;81.87;98540.50;5094831;28;20107;-49
2023/05/14 02:31:40;;;;;;;11.80;3.75;;;;;;;14.02;81.20;98542.94;5094734;28;20046;-50
2023/05/14 02:34:06;;;;;;;5.28;3.63;;;;;;;14.04;80.89;98536.38;5096011;28;20081;-50
2023/05/14 02:36:32;;;;;;;6.60;3.67;;;;;;;14.04;80.37;98532.94;5096159;28;20102;-49
2023/05/14 02:38:58;;;;;;;15.07;4.38;;;;;;;14.00;80.67;98535.22;5096008;28;20458;-49
2023/05/14 02:41:24;;;;;;;7.65;3.60;;;;;;;13.97;81.16;98530.41;5095479;28;20498;-49
2023/05/14 02:43:50;;;;;;;8.65;2.75;;;;;;;14.00;81.70;98532.59;5094456;28;20106;-49
2023/05/14 02:46:16;;;;;;;9.63;4.30;;;;;;;14.04;81.69;98535.59;5077574;28;20536;-49
2023/05/14 02:48:42;;;;;;;12.05;3.72;;;;;;;14.12;82.42;98530.78;5094509;28;20031;-50
2023/05/14 02:51:08;;;;;;;6.25;3.83;;;;;;;14.09;82.10;98528.59;5094379;28;20085;-49
2023/05/14 02:53:34;;;;;;;13.15;6.95;;;;;;;14.18;82.62;98527.25;5095597;28;20446;-49
2023/05/14 02:55:59;;;;;;;6.25;3.20;;;;;;;14.32;82.14;98521.75;5095641;28;20032;-49
2023/05/14 02:58:25;;;;;;;8.20;3.90;;;;;;;14.43;81.45;98528.88;5095573;28;20454;-49
2023/05/14 03:00:51;;;;;;;8.68;3.80;;;;;;;14.44;80.78;98529.69;5095332;28;20028;-49
2023/05/14 03:03:18;;;;;;;5.95;4.18;;;;;;;14.44;80.60;98527.03;5094093;28;20413;-49
2023/05/14 03:05:44;;;;;;;5.47;3.75;;;;;;;14.50;80.80;98523.47;5094061;28;20070;-49
2023/05/14 03:08:10;;;;;;;13.55;3.90;;;;;;;14.61;80.75;98519.25;5094027;28;20079;-49
2023/05/14 03:10:36;;;;;;;8.80;3.80;;;;;;;14.76;80.81;98512.47;5095289;28;20035;-49
2023/05/14 03:13:02;;;;;;;10.73;3.63;;;;;;;14.93;79.88;98514.38;5093977;28;20024;-49
2023/05/14 03:15:28;;;;;;;7.03;3.28;;;;;;;14.98;79.58;98517.94;5095159;28;20027;-49
2023/05/14 03:17:53;;;;;;;6.63;3.58;;;;;;;14.95;79.66;98517.59;5093858;28;20035;-49
2023/05/14 03:20:19;;;;;;;10.90;3.95;;;;;;;14.93;79.57;98514.38;5093729;28;20070;-49
2023/05/14 03:22:45;;;;;;;12.82;4.60;;;;;;;14.93;78.80;98511.75;5095191;28;20086;-50
2023/05/14 03:25:11;;;;;;;5.60;3.30;;;;;;;15.00;78.40;98519.56;5095022;28;20028;-49
2023/05/14 03:27:37;;;;;;;6.75;3.25;;;;;;;15.01;78.20;98514.06;5093509;28;20032;-50
2023/05/14 03:30:03;;;;;;;10.48;3.67;;;;;;;14.99;78.22;98510.84;5094913;28;20432;-50
2023/05/14 03:32:29;;;;;;;7.47;3.50;;;;;;;14.97;78.29;98513.72;5093546;28;20028;-49
2023/05/14 03:34:55;;;;;;;9.00;3.90;;;;;;;14.98;78.69;98515.31;5093492;28;20401;-50
2023/05/14 03:37:21;;;;;;;8.75;5.05;;;;;;;15.03;78.63;98514.63;5094309;28;20027;-50
2023/05/14 03:39:46;;;;;;;14.40;4.53;;;;;;;15.00;78.85;98515.06;5094489;28;20112;-50
2023/05/14 03:42:12;;;;;;;9.95;4.20;;;;;;;15.00;78.97;98514.28;5094436;28;20043;-49
2023/05/14 03:44:37;;;;;;;7.93;4.07;;;;;;;15.01;78.69;98514.06;5094544;28;20036;-49
2023/05/14 03:47:03;;;;;;;12.23;4.85;;;;;;;15.03;78.80;98522.56;5093238;28;20028;-49
2023/05/14 03:49:29;;;;;;;13.93;4.68;;;;;;;15.08;78.99;98513.91;5094748;28;20038;-49
2023/05/14 03:51:56;;;;;;;8.88;4.82;;;;;;;15.24;79.08;98513.19;5093142;28;20024;-49
2023/05/14 03:54:21;;;;;;;23.08;4.68;;;;;;;15.31;79.02;98513.84;5093128;28;20435;-49
2023/05/14 03:56:47;;;;;;;8.20;4.05;;;;;;;15.46;78.79;98523.13;5093066;28;20024;-49
2023/05/14 03:59:15;;;;;;;23.67;5.25;;;;;;;15.44;77.52;98517.25;5094333;28;20389;-49
2023/05/14 04:01:42;;;;;;;10.63;4.55;;;;;;;15.46;77.58;98515.97;5092832;28;20118;-49
2023/05/14 04:04:07;;;;;;;6.13;4.30;;;;;;;15.41;77.44;98515.06;5094205;28;20031;-49
2023/05/14 04:06:33;;;;;;;11.48;6.53;;;;;;;15.15;78.55;98520.69;5094178;28;20402;-49
2023/05/14 04:08:59;;;;;;;13.15;6.18;;;;;;;15.05;81.05;98517.84;5094158;28;20115;-49
2023/05/14 04:11:24;;;;;;;11.63;7.05;;;;;;;14.85;83.76;98515.56;5092867;28;20551;-49
2023/05/14 04:13:50;;;;;;;28.42;8.85;;;;;;;14.78;87.89;98518.31;5092863;28;20016;-48
2023/05/14 04:16:16;;;;;;;11.25;6.97;;;;;;;14.70;90.32;98510.75;5093939;28;20077;-48
2023/05/14 04:18:41;;;;;;;12.60;7.47;;;;;;;14.50;92.00;98508.44;5092618;28;20398;-48
2023/05/14 04:21:07;;;;;;;17.75;8.82;;;;;;;14.25;92.58;98513.94;5092508;28;20031;-49
2023/05/14 04:23:33;;;;;;;25.88;12.23;;;;;;;13.99;92.78;98507.25;5093857;28;20024;-48
2023/05/14 04:25:58;;;;;;;28.30;11.50;;;;;;;13.90;95.22;98513.88;5093805;28;20028;-47
2023/05/14 04:28:24;;;;;;;21.52;15.35;;;;;;;14.10;97.92;98513.56;5093799;28;20024;-48
2023/05/14 04:30:50;;;;;;;16.33;10.40;;;;;;;14.17;98.99;98512.44;5092362;28;20024;-48
2023/05/14 04:33:16;;;;;;;9.90;8.82;;;;;;;14.05;99.18;98516.09;5092384;28;20028;-48
2023/05/14 04:35:43;;;;;;;20.75;11.60;;;;;;;13.97;99.87;98519.88;5093608;28;20394;-48
2023/05/14 04:38:10;;;;;;;22.83;11.30;;;;;;;13.76;98.95;98521.16;5093594;28;20061;-48
2023/05/14 04:40:36;;;;;;;51.42;15.32;;;;;;;13.81;100.00;98523.16;5093337;28;20054;-48
2023/05/14 04:43:02;;;;;;;15.40;10.80;;;;;;;13.96;100.00;98523.53;5092167;28;20111;-48
2023/05/14 04:45:29;;;;;;;23.92;12.18;;;;;;;13.86;100.00;98520.63;5092098;28;20063;-48
2023/05/14 04:47:55;;;;;;;28.00;12.60;;;;;;;13.78;100.00;98517.31;5091190;28;20024;-48
2023/05/14 04:50:20;;;;;;;25.75;11.70;;;;;;;13.84;100.00;98518.22;5091966;28;20478;-48
2023/05/14 04:52:46;;;;;;;10.02;9.02;;;;;;;13.97;100.00;98522.50;5093293;28;20031;-48
2023/05/14 04:55:12;;;;;;;27.60;13.55;;;;;;;13.89;100.00;98518.34;5092043;28;20077;-48
2023/05/14 04:57:37;;;;;;;1289.30;98.60;;;;;;;13.89;100.00;98528.91;5093314;28;20413;-49
2023/05/14 05:00:08;;;;;;;20.25;12.50;;;;;;;13.74;100.00;98531.97;5091910;28;20059;-47
2023/05/14 05:02:34;;;;;;;15.18;11.40;;;;;;;13.56;100.00;98534.63;5091815;28;20107;-47
2023/05/14 05:04:59;;;;;;;23.35;13.75;;;;;;;13.47;100.00;98528.88;5093063;28;20028;-48
2023/05/14 05:07:25;;;;;;;22.50;12.60;;;;;;;13.61;100.00;98532.16;5091762;28;20038;-48
2023/05/14 05:09:50;;;;;;;18.02;12.90;;;;;;;13.70;100.00;98537.91;5091762;28;20474;-48
2023/05/14 05:12:16;;;;;;;20.80;12.95;;;;;;;13.65;100.00;98535.13;5092915;28;20027;-48
2023/05/14 05:14:42;;;;;;;35.55;14.23;;;;;;;13.70;100.00;98536.09;5091586;28;20024;-48
2023/05/14 05:17:08;;;;;;;21.30;13.18;;;;;;;13.62;100.00;98538.22;5091855;28;20035;-48
2023/05/14 05:19:33;;;;;;;29.95;17.25;;;;;;;13.70;100.00;98544.00;5092775;28;20024;-48
2023/05/14 05:22:02;;;;;;;20.02;13.98;;;;;;;13.85;100.00;98545.41;5092803;28;20038;-48
2023/05/14 05:24:27;;;;;;;15.80;12.35;;;;;;;13.89;100.00;98542.09;5091465;28;20026;-48
2023/05/14 05:26:54;;;;;;;18.65;13.00;;;;;;;13.91;100.00;98541.88;5092711;28;20024;-47
2023/05/14 05:29:21;;;;;;;23.13;17.00;;;;;;;13.91;100.00;98539.25;5091276;28;20409;-47
2023/05/14 05:31:47;;;;;;;16.08;12.15;;;;;;;13.96;100.00;98542.00;5091316;28;20028;-47
2023/05/14 05:34:13;;;;;;;18.63;11.45;;;;;;;14.04;100.00;98543.50;5091265;28;20039;-47
2023/05/14 05:36:38;;;;;;;15.07;12.15;;;;;;;14.09;100.00;98544.44;5092427;28;20023;-47
2023/05/14 05:39:05;;;;;;;26.42;11.10;;;;;;;14.05;100.00;98545.13;5091207;28;20497;-47
2023/05/14 05:41:31;;;;;;;20.48;11.40;;;;;;;13.97;100.00;98535.69;5092142;28;20047;-47
2023/05/14 05:43:56;;;;;;;15.00;9.77;;;;;;;13.92;100.00;98546.09;5091078;28;20035;-47
2023/05/14 05:46:22;;;;;;;18.58;10.65;;;;;;;13.95;100.00;98543.84;5091245;28;20027;-47
2023/05/14 05:48:48;;;;;;;17.48;11.85;;;;;;;13.98;100.00;98546.03;5091021;28;20031;-47
2023/05/14 05:51:14;;;;;;;15.57;10.70;;;;;;;13.96;100.00;98547.25;5092239;28;20016;-47
2023/05/14 05:53:39;;;;;;;13.98;10.27;;;;;;;14.04;100.00;98543.50;5090938;28;20397;-47
2023/05/14 05:56:05;;;;;;;13.90;10.43;;;;;;;14.01;100.00;98547.41;5090840;28;20031;-47
2023/05/14 05:58:31;;;;;;;29.63;10.95;;;;;;;14.00;100.00;98540.50;5092043;28;20031;-47
2023/05/14 06:00:57;;;;;;;11.82;10.50;;;;;;;14.08;100.00;98542.03;5090803;28;20545;-47
2023/05/14 06:03:22;;;;;;;13.98;10.30;;;;;;;14.10;100.00;98543.41;5091045;28;20114;-47
2023/05/14 06:05:48;;;;;;;17.75;10.70;;;;;;;14.11;100.00;98538.94;5090958;28;20160;-47
2023/05/14 06:08:14;;;;;;;27.98;11.70;;;;;;;14.06;100.00;98542.25;5092017;28;20031;-47
2023/05/14 06:10:40;;;;;;;19.13;11.13;;;;;;;14.04;100.00;98535.59;5090555;28;20069;-47
2023/05/14 06:13:06;;;;;;;15.75;10.73;;;;;;;14.25;100.00;98535.06;5090644;28;20028;-47
2023/05/14 06:15:32;;;;;;;12.07;9.45;;;;;;;14.40;100.00;98531.97;5090568;28;20119;-47
2023/05/14 06:17:57;;;;;;;14.73;8.98;;;;;;;14.54;100.00;98543.91;5091924;28;20024;-47
2023/05/14 06:20:23;;;;;;;11.63;9.60;;;;;;;14.51;100.00;98539.09;5091752;28;20036;-47
2023/05/14 06:22:48;;;;;;;10.18;8.23;;;;;;;14.68;100.00;98541.09;5090500;28;20024;-47
2023/05/14 06:25:14;;;;;;;12.43;8.20;;;;;;;14.83;100.00;98545.88;5091714;28;20028;-47
2023/05/14 06:27:43;;;;;;;13.00;7.80;;;;;;;14.96;100.00;98545.66;5090791;28;20024;-47
2023/05/14 06:30:10;;;;;;;12.55;8.13;;;;;;;15.13;100.00;98537.78;5090496;28;20028;-48
2023/05/14 06:32:36;;;;;;;11.18;7.45;;;;;;;15.22;100.00;98543.53;5090477;28;20028;-48
2023/05/14 06:35:01;;;;;;;13.63;7.90;;;;;;;15.29;100.00;98542.38;5090415;28;20017;-48
2023/05/14 06:37:27;;;;;;;8.40;6.90;;;;;;;15.53;100.00;98537.00;5090422;28;20051;-48
2023/05/14 06:39:53;;;;;;;10.27;7.93;;;;;;;15.65;99.63;98553.63;5091490;28;20104;-51
2023/05/14 06:42:19;;;;;;;8.60;7.15;;;;;;;15.60;99.32;98542.16;5091539;28;20495;-49
2023/05/14 06:44:45;;;;;;;16.77;7.78;;;;;;;15.69;99.68;98546.00;5091691;28;20034;-49
2023/05/14 06:47:11;;;;;;;13.82;7.22;;;;;;;15.77;99.66;98551.78;5091600;28;20111;-49
2023/05/14 06:49:36;;;;;;;18.13;7.63;;;;;;;15.82;99.71;98551.06;5091700;28;20063;-48
2023/05/14 06:52:02;;;;;;;644.03;572.85;;;;;;;15.73;97.63;98558.56;5090302;28;20469;-49
2023/05/14 06:54:28;;;;;;;105.93;78.97;;;;;;;15.71;98.23;98554.50;5091567;28;20028;-49
2023/05/14 06:56:54;;;;;;;43.58;28.23;;;;;;;15.75;98.73;98556.50;5091564;28;20031;-48
2023/05/14 06:59:20;;;;;;;32.80;17.40;;;;;;;15.77;98.56;98558.88;5090261;28;20028;-49
2023/05/14 07:01:45;;;;;;;24.52;18.38;;;;;;;15.73;97.96;98557.75;5091451;28;20028;-48
2023/05/14 07:04:11;;;;;;;22.23;17.08;;;;;;;15.68;97.21;98549.72;5091486;28;20043;-48
2023/05/14 07:06:37;;;;;;;22.20;14.80;;;;;;;15.69;97.18;98559.25;5091513;28;20064;-48
2023/05/14 07:09:02;;;;;;;19.83;15.70;;;;;;;15.82;97.50;98555.56;5090144;28;20028;-49
2023/05/14 07:11:29;;;;;;;21.58;11.93;;;;;;;15.92;97.28;98556.53;5093407;28;20024;-49
2023/05/14 07:13:55;;;;;;;21.42;9.95;;;;;;;16.01;96.94;98559.56;5093949;28;20028;-48
2023/05/14 07:16:20;;;;;;;16.48;8.23;;;;;;;16.10;96.22;98552.06;5093862;28;20035;-49
2023/05/14 07:18:46;;;;;;;15.27;9.23;;;;;;;16.14;95.78;98548.69;5093920;28;20027;-49
2023/05/14 07:21:12;;;;;;;15.35;6.80;;;;;;;16.18;94.92;98549.03;5094962;28;20550;-49
2023/05/14 07:23:37;;;;;;;13.23;7.75;;;;;;;16.24;94.65;98547.25;5095309;28;20107;-49
2023/05/14 07:26:06;;;;;;;12.02;7.22;;;;;;;16.29;95.43;98547.31;5095048;28;20485;-49
2023/05/14 07:28:35;;;;;;;9.32;6.78;;;;;;;16.26;95.57;98545.97;5095244;28;20038;-49
2023/05/14 07:31:03;;;;;;;15.70;7.30;;;;;;;16.22;95.50;98549.31;5094954;28;20039;-49
2023/05/14 07:33:29;;;;;;;13.50;6.53;;;;;;;16.21;96.56;98545.09;5094869;28;20028;-49
2023/05/14 07:35:54;;;;;;;19.15;8.95;;;;;;;16.11;97.13;98553.66;5093573;28;20465;-49
2023/05/14 07:38:20;;;;;;;13.75;6.93;;;;;;;16.01;97.99;98551.63;5093480;28;20169;-49
2023/05/14 07:40:46;;;;;;;8.68;7.47;;;;;;;15.77;97.77;98554.44;5076395;28;20059;-49
2023/05/14 07:43:13;;;;;;;18.13;8.13;;;;;;;15.49;98.18;98549.91;5093367;28;20055;-49
2023/05/14 07:45:39;;;;;;;10.02;8.07;;;;;;;15.28;98.91;98555.81;5094645;28;20401;-49
2023/05/14 07:48:04;;;;;;;14.25;8.40;;;;;;;15.22;100.00;98551.47;5093298;28;20031;-48
2023/05/14 07:50:30;;;;;;;15.13;8.60;;;;;;;15.32;100.00;98557.75;5094513;28;20030;-49
2023/05/14 07:52:56;;;;;;;14.05;7.90;;;;;;;15.33;100.00;98550.63;5093212;28;20055;-48
2023/05/14 07:55:22;;;;;;;16.50;7.70;;;;;;;15.38;100.00;98558.66;5094378;28;20075;-48
2023/05/14 07:57:48;;;;;;;13.52;7.90;;;;;;;15.44;100.00;98559.56;5093201;28;20485;-48
2023/05/14 08:00:15;;;;;;;12.55;9.07;;;;;;;15.32;100.00;98559.59;5093015;28;20119;-49
2023/05/14 08:02:41;;;;;;;8.63;6.55;;;;;;;15.13;100.00;98554.47;5094519;28;20125;-48
2023/05/14 08:05:08;;;;;;;12.05;7.25;;;;;;;15.12;100.00;98549.41;5094234;28;20486;-49
2023/05/14 08:07:34;;;;;;;18.25;7.07;;;;;;;15.51;100.00;98549.66;5094193;28;20051;-48
2023/05/14 08:10:00;;;;;;;16.92;8.07;;;;;;;15.69;99.68;98549.44;5092863;28;20067;-48
2023/05/14 08:12:25;;;;;;;12.68;5.93;;;;;;;15.99;99.85;98548.44;5094139;28;20028;-49
2023/05/14 08:14:51;;;;;;;8.10;6.47;;;;;;;16.14;96.44;98537.31;5092737;28;20043;-49
2023/05/14 08:17:17;;;;;;;10.82;6.20;;;;;;;16.27;96.30;98534.31;5092694;28;20028;-49
2023/05/14 08:19:43;;;;;;;28.60;7.20;;;;;;;16.60;95.69;98545.13;5093969;28;20020;-48
2023/05/14 08:22:09;;;;;;;6.93;4.82;;;;;;;16.89;93.60;98538.69;5093827;28;20028;-49
2023/05/14 08:24:34;;;;;;;10.18;5.63;;;;;;;16.99;91.96;98543.34;5092599;28;20501;-48
2023/05/14 08:27:01;;;;;;;9.23;6.22;;;;;;;16.72;91.09;98546.66;5092480;28;20028;-48
2023/05/14 08:29:27;;;;;;;11.07;5.38;;;;;;;16.71;93.07;98537.09;5093759;28;20124;-48
2023/05/14 08:31:52;;;;;;;6.07;5.20;;;;;;;16.75;91.53;98542.72;5092390;28;20035;-49
2023/05/14 08:34:18;;;;;;;14.45;5.65;;;;;;;16.75;91.68;98537.41;5093662;28;20028;-49
2023/05/14 08:36:44;;;;;;;10.10;5.28;;;;;;;16.80;91.27;98545.41;5092300;28;20568;-48
2023/05/14 08:39:10;;;;;;;19.60;7.07;;;;;;;17.13;93.59;98539.28;5092344;28;20035;-49
2023/05/14 08:41:39;;;;;;;14.73;5.82;;;;;;;17.63;94.17;98536.66;5093310;28;20112;-48
2023/05/14 08:44:12;;;;;;;22.17;8.15;;;;;;;18.06;93.34;98540.25;5093450;28;20083;-47
2023/05/14 08:46:38;;;;;;;17.90;7.07;;;;;;;18.21;91.83;98532.44;5092138;28;20028;-48
2023/05/14 08:49:15;;;;;;;41.97;35.55;;;;;;;18.28;94.03;98534.88;5092104;28;20515;-48
2023/05/14 08:51:48;;;;;;;19.98;11.85;;;;;;;18.49;95.79;98539.28;5076016;28;20074;-48
2023/05/14 08:54:17;;;;;;;16.17;14.77;;;;;;;18.66;94.50;98535.66;5091998;28;20076;-48
2023/05/14 08:56:46;;;;;;;16.83;15.00;;;;;;;19.00;93.29;98538.00;5091935;28;20020;-46
2023/05/14 08:59:12;;;;;;;21.30;6.68;;;;;;;19.11;88.89;98535.09;5091834;28;20023;-45
2023/05/14 09:01:41;;;;;;;8.88;3.65;;;;;;;19.13;86.32;98542.84;5092942;28;20504;-45
2023/05/14 09:04:08;;;;;;;11.18;4.05;;;;;;;19.04;84.64;98544.41;5091795;28;20060;-45
2023/05/14 09:06:36;;;;;;;8.30;3.83;;;;;;;18.84;82.58;98542.44;5093015;28;20077;-45
2023/05/14 09:09:03;;;;;;;7.80;3.35;;;;;;;18.60;83.55;98534.03;5093006;28;20024;-45
2023/05/14 09:11:29;;;;;;;8.18;3.00;;;;;;;18.59;83.75;98533.22;5091589;28;20490;-45
2023/05/14 09:13:55;;;;;;;4.78;2.78;;;;;;;18.61;82.80;98528.44;5092944;28;20028;-46
2023/05/14 09:16:21;;;;;;;8.65;3.33;;;;;;;18.35;81.49;98533.59;5091576;28;20482;-45
2023/05/14 09:18:47;;;;;;;6.85;2.92;;;;;;;18.31;82.45;98531.69;5092882;28;20028;-45
2023/05/14 09:21:14;;;;;;;6.50;3.08;;;;;;;18.40;81.52;98534.69;5092926;28;20034;-45
2023/05/14 09:23:44;;;;;;;5.45;2.60;;;;;;;18.41;79.37;98531.78;5091436;28;20062;-45
2023/05/14 09:26:17;;;;;;;10.55;9.60;;;;;;;18.73;79.78;98533.56;5092668;28;20074;-46
2023/05/14 09:28:43;;;;;;;5.95;3.60;;;;;;;19.21;78.80;98531.69;5092632;28;20032;-46
2023/05/14 09:31:09;;;;;;;23.92;16.40;;;;;;;19.69;80.57;98529.69;5092622;28;20035;-46
2023/05/14 09:33:35;;;;;;;7.93;3.83;;;;;;;20.10;79.31;98535.13;5092155;28;20031;-46
2023/05/14 09:36:01;;;;;;;9.25;3.30;;;;;;;20.21;77.28;98524.47;5091224;28;20089;-46
2023/05/14 09:38:31;;;;;;;3.20;2.90;;;;;;;19.92;73.06;98538.28;5092472;28;20035;-46
2023/05/14 09:40:58;;;;;;;11.25;4.40;;;;;;;19.28;75.04;98536.78;5090887;28;20048;-46
2023/05/14 09:43:24;;;;;;;10.68;4.03;;;;;;;18.88;77.59;98532.91;5091091;28;20032;-46
2023/05/14 09:45:51;;;;;;;8.50;4.13;;;;;;;18.84;78.28;98534.47;5092250;28;20113;-46
2023/05/14 09:48:17;;;;;;;6.88;3.40;;;;;;;18.69;77.22;98537.78;5092338;28;20032;-46
2023/05/14 09:50:44;;;;;;;8.32;3.72;;;;;;;18.54;77.08;98530.53;5092288;28;20027;-46
2023/05/14 09:53:10;;;;;;;11.48;4.95;;;;;;;18.71;78.17;98523.22;5092176;28;20051;-46
2023/05/14 09:55:37;;;;;;;10.48;4.60;;;;;;;19.06;76.81;98532.44;5090882;28;20028;-46
2023/05/14 09:58:03;;;;;;;8.00;4.13;;;;;;;19.29;77.20;98530.41;5091180;28;20031;-46
2023/05/14 10:00:31;;;;;;;8.80;4.57;;;;;;;19.35;77.43;98530.16;5090846;28;20032;-47
2023/05/14 10:02:58;;;;;;;11.25;4.90;;;;;;;19.42;78.52;98529.91;5092009;28;20032;-46
2023/05/14 10:05:25;;;;;;;10.32;4.90;;;;;;;19.58;78.35;98528.09;5091089;28;20398;-46
2023/05/14 10:07:56;;;;;;;5.18;4.53;;;;;;;19.82;75.82;98527.63;5091977;28;20482;-47
2023/05/14 10:10:25;;;;;;;13.57;5.22;;;;;;;19.55;74.78;98521.41;5090681;28;20032;-46
2023/05/14 10:13:03;;;;;;;7.93;4.82;;;;;;;20.04;75.21;98527.38;5091977;28;20080;-46
2023/05/14 10:15:48;;;;;;;6.00;5.03;;;;;;;20.73;76.49;98520.69;5091865;28;20032;-46
2023/05/14 10:18:18;;;;;;;14.25;6.30;;;;;;;20.81;76.78;98517.47;5090685;28;20024;-46
2023/05/14 10:20:47;;;;;;;16.05;5.70;;;;;;;20.73;76.62;98521.47;5091958;28;20106;-47
2023/05/14 10:23:13;;;;;;;12.07;6.07;;;;;;;21.09;74.66;98517.91;5091795;28;20157;-47
2023/05/14 10:25:40;;;;;;;9.88;5.60;;;;;;;21.84;73.48;98509.75;5091822;28;20028;-47
2023/05/14 10:28:06;;;;;;;6.15;5.55;;;;;;;23.44;68.91;98509.75;5090561;28;20028;-47
2023/05/14 10:30:32;;;;;;;15.13;5.18;;;;;;;24.51;65.97;98501.94;5073721;28;20024;-47
2023/05/14 10:33:15;;;;;;;4.68;3.97;;;;;;;25.21;64.96;98504.59;5090532;28;20056;-46
2023/05/14 10:36:10;;;;;;;6.75;5.07;;;;;;;25.41;63.55;98492.63;5091817;28;20149;-46
2023/05/14 10:38:36;;;;;;;9.05;4.30;;;;;;;25.77;57.52;98489.13;5078461;28;20509;-47
2023/05/14 10:41:05;;;;;;;12.60;5.20;;;;;;;25.98;55.17;98495.66;5090134;28;20052;-46
2023/05/14 10:43:38;;;;;;;10.32;3.97;;;;;;;26.73;52.05;98497.78;5091608;28;20418;-47
2023/05/14 10:46:05;;;;;;;10.68;3.65;;;;;;;27.97;48.88;98493.03;5093134;28;20027;-47
2023/05/14 10:48:32;;;;;;;4.78;4.15;;;;;;;29.16;46.55;98488.63;5095679;28;20035;-47
2023/05/14 10:51:00;;;;;;;7.50;3.75;;;;;;;29.78;43.13;98488.97;5095653;28;20027;-47
2023/05/14 10:53:38;;;;;;;6.43;3.95;;;;;;;29.34;39.73;98475.78;5094323;28;20027;-47
2023/05/14 10:56:12;;;;;;;10.25;4.03;;;;;;;28.37;39.79;98473.88;5094268;28;20173;-47
2023/05/14 10:58:40;;;;;;;7.60;3.20;;;;;;;28.38;40.33;98478.19;5095666;28;20072;-47
2023/05/14 11:01:08;;;;;;;9.55;3.58;;;;;;;28.46;39.76;98478.13;5094364;28;20031;-47
2023/05/14 11:03:45;;;;;;;4.53;4.03;;;;;;;27.39;40.58;98482.41;5094141;28;20068;-47
2023/05/14 11:06:12;;;;;;;6.93;3.95;;;;;;;26.35;41.87;98479.38;5095323;28;20030;-47
2023/05/14 11:08:39;;;;;;;5.00;3.60;;;;;;;25.91;41.94;98479.91;5095388;28;20023;-47
2023/05/14 11:11:05;;;;;;;7.32;3.55;;;;;;;26.36;41.85;98487.16;5094032;28;20028;-47
2023/05/14 11:13:33;;;;;;;8.25;4.30;;;;;;;26.74;41.36;98480.50;5095240;28;20020;-47
2023/05/14 11:16:00;;;;;;;7.57;3.72;;;;;;;26.77;41.37;98478.00;5095129;28;20390;-46
2023/05/14 11:18:32;;;;;;;5.32;3.78;;;;;;;26.19;40.39;98470.91;5093851;28;20036;-46
2023/05/14 11:21:00;;;;;;;10.70;4.13;;;;;;;25.52;41.63;98472.50;5095086;28;20030;-47
2023/05/14 11:23:26;;;;;;;7.28;3.97;;;;;;;25.24;42.66;98466.41;5093727;28;20024;-47